createdAt,value
2018-09-09T00:01:18.652Z,94972.61
2018-09-09T00:03:47.327Z,94976.38
2018-09-09T00:06:15.988Z,94971.19
2018-09-09T00:08:44.644Z,94972.42
2018-09-09T00:11:13.286Z,94967.65
2018-09-09T00:13:41.943Z,94964.77
2018-09-09T00:16:10.588Z,94966.03
2018-09-09T00:18:39.243Z,94969.23
2018-09-09T00:21:07.947Z,94966.00
2018-09-09T00:23:36.633Z,94965.39
2018-09-09T00:26:05.319Z,94963.33
2018-09-09T00:28:33.933Z,94963.63
2018-09-09T00:31:02.571Z,94965.05
2018-09-09T00:33:31.291Z,94970.48
2018-09-09T00:36:00.013Z,94969.13
2018-09-09T00:38:28.684Z,94969.52
2018-09-09T00:40:57.327Z,94974.69
2018-09-09T00:43:26.025Z,94964.64
2018-09-09T00:45:54.701Z,94970.03
2018-09-09T00:48:23.353Z,94971.76
2018-09-09T00:50:57.270Z,94978.16
2018-09-09T00:53:31.153Z,94976.54
2018-09-09T00:55:59.839Z,94974.92
2018-09-09T00:58:28.475Z,94971.53
2018-09-09T01:01:02.424Z,94969.48
2018-09-09T01:03:31.196Z,94977.41
2018-09-09T01:05:59.869Z,94974.08
2018-09-09T01:08:28.528Z,94976.37
2018-09-09T01:10:57.166Z,94967.47
2018-09-09T01:13:25.772Z,94971.41
2018-09-09T01:15:54.498Z,94973.52
2018-09-09T01:18:23.155Z,94967.68
2018-09-09T01:20:51.862Z,94967.07
2018-09-09T01:23:20.625Z,94964.88
2018-09-09T01:25:49.301Z,94965.36
2018-09-09T01:28:17.934Z,94967.81
2018-09-09T01:30:46.591Z,94962.95
2018-09-09T01:33:15.224Z,94965.11
2018-09-09T01:35:43.964Z,94970.97
2018-09-09T01:38:12.608Z,94971.07
2018-09-09T01:40:41.299Z,94975.23
2018-09-09T01:43:09.955Z,94972.51
2018-09-09T01:45:38.734Z,94977.16
2018-09-09T01:48:07.414Z,94969.09
2018-09-09T01:50:36.050Z,94977.38
2018-09-09T01:53:04.822Z,94975.48
2018-09-09T01:55:33.820Z,94964.74
2018-09-09T01:58:02.482Z,94970.00
2018-09-09T02:00:31.152Z,94967.16
2018-09-09T02:02:59.795Z,94971.72
2018-09-09T02:05:28.494Z,94973.13
2018-09-09T02:07:57.161Z,94979.42
2018-09-09T02:10:25.839Z,94984.86
2018-09-09T02:12:54.459Z,94981.34
2018-09-09T02:15:23.124Z,94987.61
2018-09-09T02:17:51.787Z,94983.27
2018-09-09T02:20:20.464Z,94985.41
2018-09-09T02:22:49.131Z,94990.88
2018-09-09T02:25:17.827Z,94998.98
2018-09-09T02:27:46.424Z,94988.06
2018-09-09T02:30:15.071Z,94988.70
2018-09-09T02:32:43.706Z,94992.92
2018-09-09T02:35:12.343Z,94989.83
2018-09-09T02:37:41.039Z,94987.38
2018-09-09T02:40:09.755Z,94992.84
2018-09-09T02:42:38.443Z,94993.45
2018-09-09T02:45:07.110Z,94986.41
2018-09-09T02:47:35.811Z,94985.68
2018-09-09T02:50:04.566Z,94984.58
2018-09-09T02:52:33.798Z,94977.30
2018-09-09T02:55:02.494Z,94985.09
2018-09-09T02:57:31.126Z,94982.55
2018-09-09T02:59:59.748Z,94979.83
2018-09-09T03:02:28.421Z,94985.51
2018-09-09T03:04:57.059Z,94986.70
2018-09-09T03:07:25.691Z,94985.99
2018-09-09T03:09:54.316Z,94983.91
2018-09-09T03:12:22.938Z,94978.45
2018-09-09T03:14:51.608Z,94975.42
2018-09-09T03:17:20.239Z,94981.67
2018-09-09T03:19:48.880Z,94976.34
2018-09-09T03:22:17.524Z,94989.16
2018-09-09T03:24:46.187Z,94984.19
2018-09-09T03:27:14.856Z,94982.57
2018-09-09T03:29:43.567Z,94988.31
2018-09-09T03:32:12.202Z,94990.14
2018-09-09T03:34:40.876Z,94991.45
2018-09-09T03:37:09.520Z,94989.11
2018-09-09T03:39:38.269Z,94992.35
2018-09-09T03:42:07.284Z,94996.91
2018-09-09T03:44:35.911Z,94997.70
2018-09-09T03:47:04.603Z,94997.30
2018-09-09T03:49:33.217Z,95001.02
2018-09-09T03:52:01.894Z,95000.13
2018-09-09T03:54:30.535Z,94996.30
2018-09-09T03:56:59.198Z,95000.55
2018-09-09T03:59:27.943Z,95005.97
2018-09-09T04:01:56.546Z,95004.66
2018-09-09T04:04:25.228Z,94996.30
2018-09-09T04:06:53.907Z,95003.45
2018-09-09T04:09:22.592Z,95006.90
2018-09-09T04:11:51.246Z,95009.73
2018-09-09T04:14:19.859Z,95014.67
2018-09-09T04:16:48.498Z,95010.52
2018-09-09T04:19:17.230Z,95017.11
2018-09-09T04:21:50.059Z,95014.90
2018-09-09T04:24:19.059Z,95020.97
2018-09-09T04:26:47.848Z,95025.81
2018-09-09T04:29:16.573Z,95025.69
2018-09-09T04:31:45.428Z,95027.61
2018-09-09T04:34:14.336Z,95026.48
2018-09-09T04:36:43.635Z,95031.84
2018-09-09T04:39:14.498Z,95028.41
2018-09-09T04:41:43.199Z,95031.73
2018-09-09T04:44:13.284Z,95028.52
2018-09-09T04:46:41.985Z,95030.41
2018-09-09T04:49:10.976Z,95037.80
2018-09-09T04:51:39.888Z,95039.77
2018-09-09T04:54:08.566Z,95037.52
2018-09-09T04:56:37.190Z,95040.77
2018-09-09T04:59:06.186Z,95045.61
2018-09-09T05:01:38.280Z,95046.92
2018-09-09T05:04:06.926Z,95049.23
2018-09-09T05:06:36.512Z,95051.17
2018-09-09T05:09:06.453Z,95052.84
2018-09-09T05:11:35.279Z,95058.30
2018-09-09T05:14:04.031Z,95050.27
2018-09-09T05:16:32.772Z,95052.17
2018-09-09T05:19:01.480Z,95058.35
2018-09-09T05:21:30.223Z,95055.20
2018-09-09T05:23:58.854Z,95059.45
2018-09-09T05:26:27.504Z,95059.56
2018-09-09T05:28:56.139Z,95064.70
2018-09-09T05:31:24.776Z,95066.53
2018-09-09T05:33:53.466Z,95067.53
2018-09-09T05:36:22.125Z,95064.09
2018-09-09T05:38:50.809Z,95067.84
2018-09-09T05:41:19.468Z,95068.53
2018-09-09T05:43:48.099Z,95061.05
2018-09-09T05:46:16.762Z,95067.72
2018-09-09T05:48:45.447Z,95068.86
2018-09-09T05:51:14.192Z,95072.78
2018-09-09T05:53:42.937Z,95077.42
2018-09-09T05:56:11.571Z,95079.73
2018-09-09T05:58:40.246Z,95069.52
2018-09-09T06:01:08.940Z,95078.20
2018-09-09T06:04:16.560Z,95085.69
2018-09-09T06:06:45.180Z,95070.14
2018-09-09T06:09:13.890Z,95077.82
2018-09-09T06:11:42.559Z,95080.20
2018-09-09T06:14:11.200Z,95083.84
2018-09-09T06:16:39.881Z,95082.83
2018-09-09T06:19:08.521Z,95085.87
2018-09-09T06:21:37.220Z,95084.49
2018-09-09T06:24:06.065Z,95090.34
2018-09-09T06:26:34.694Z,95093.20
2018-09-09T06:29:03.341Z,95094.77
2018-09-09T06:31:32.014Z,95097.37
2018-09-09T06:34:00.735Z,95094.16
2018-09-09T06:36:29.387Z,95085.61
2018-09-09T06:38:58.622Z,95091.01
2018-09-09T06:41:27.242Z,95098.20
2018-09-09T06:43:55.922Z,95099.25
2018-09-09T06:46:24.655Z,95095.78
2018-09-09T06:48:53.301Z,95098.63
2018-09-09T06:51:22.096Z,95101.38
2018-09-09T06:53:50.798Z,95095.31
2018-09-09T06:56:19.471Z,95102.78
2018-09-09T06:58:48.211Z,95101.77
2018-09-09T07:01:16.942Z,95099.37
2018-09-09T07:03:45.543Z,95101.56
2018-09-09T07:06:14.192Z,95109.97
2018-09-09T07:08:42.916Z,95101.14
2018-09-09T07:11:11.758Z,95105.13
2018-09-09T07:13:40.373Z,95094.99
2018-09-09T07:16:09.006Z,95094.36
2018-09-09T07:18:37.679Z,95107.11
2018-09-09T07:21:06.384Z,95094.59
2018-09-09T07:23:35.075Z,95100.41
2018-09-09T07:26:03.807Z,95098.78
2018-09-09T07:28:32.441Z,95094.77
2018-09-09T07:31:01.173Z,95087.00
2018-09-09T07:33:29.823Z,95091.81
2018-09-09T07:35:58.507Z,95087.19
2018-09-09T07:38:27.132Z,95094.88
2018-09-09T07:40:55.786Z,95101.05
2018-09-09T07:43:24.515Z,95091.31
2018-09-09T07:45:53.164Z,95091.42
2018-09-09T07:48:21.831Z,95086.30
2018-09-09T07:50:50.553Z,95088.09
2018-09-09T07:53:19.255Z,95092.91
2018-09-09T07:55:47.939Z,95090.41
2018-09-09T07:58:16.635Z,95097.50
2018-09-09T08:00:45.350Z,95091.69
2018-09-09T08:03:14.107Z,95091.03
2018-09-09T08:05:42.843Z,95092.87
2018-09-09T08:08:11.572Z,95090.61
2018-09-09T08:10:40.256Z,95085.73
2018-09-09T08:13:08.946Z,95087.70
2018-09-09T08:15:37.575Z,95084.11
2018-09-09T08:18:06.305Z,95079.50
2018-09-09T08:20:34.934Z,95081.78
2018-09-09T08:23:03.674Z,95081.68
2018-09-09T08:25:32.331Z,95087.95
2018-09-09T08:28:01.018Z,95086.98
2018-09-09T08:30:29.692Z,95084.17
2018-09-09T08:32:58.355Z,95075.42
2018-09-09T08:35:27.042Z,95073.77
2018-09-09T08:37:55.808Z,95080.98
2018-09-09T08:40:24.447Z,95078.80
2018-09-09T08:42:53.102Z,95080.30
2018-09-09T08:45:21.799Z,95069.95
2018-09-09T08:50:18.029Z,95075.81
2018-09-09T08:52:46.746Z,95069.44
2018-09-09T08:55:15.378Z,95065.72
2018-09-09T08:57:44.098Z,95061.77
2018-09-09T09:00:12.781Z,95047.77
2018-09-09T09:02:41.457Z,95054.47
2018-09-09T09:05:10.171Z,95047.36
2018-09-09T09:07:38.884Z,95043.91
2018-09-09T09:10:07.694Z,95035.75
2018-09-09T09:12:36.344Z,95029.76
2018-09-09T09:15:04.988Z,95029.64
2018-09-09T09:17:33.615Z,95031.13
2018-09-09T09:20:02.373Z,95024.48
2018-09-09T09:22:31.055Z,95021.20
2018-09-09T09:24:59.736Z,95025.89
2018-09-09T09:27:28.392Z,95032.48
2018-09-09T09:29:57.590Z,95024.20
2018-09-09T09:32:26.663Z,95021.91
2018-09-09T09:34:56.070Z,95017.53
2018-09-09T09:37:26.419Z,95016.45
2018-09-09T09:39:55.927Z,95010.23
2018-09-09T09:42:25.219Z,95007.87
2018-09-09T09:44:53.981Z,95025.60
2018-09-09T09:47:22.639Z,95019.61
2018-09-09T09:49:51.269Z,95011.00
2018-09-09T09:52:19.914Z,95021.02
2018-09-09T09:54:48.548Z,95003.91
2018-09-09T09:57:17.170Z,95000.04
2018-09-09T09:59:45.865Z,95004.29
2018-09-09T10:02:14.538Z,94990.80
2018-09-09T10:04:43.217Z,94994.13
2018-09-09T10:07:11.891Z,94988.45
2018-09-09T10:09:40.533Z,94984.05
2018-09-09T10:12:09.255Z,94980.32
2018-09-09T10:14:37.996Z,94987.26
2018-09-09T10:17:06.691Z,94987.77
2018-09-09T10:19:35.305Z,94988.88
2018-09-09T10:22:03.981Z,94985.83
2018-09-09T10:24:32.646Z,94970.45
2018-09-09T10:27:01.363Z,94962.44
2018-09-09T10:29:30.003Z,94967.42
2018-09-09T10:31:58.642Z,94964.31
2018-09-09T10:34:27.316Z,94962.52
2018-09-09T10:36:56.107Z,94969.09
2018-09-09T10:39:24.760Z,94967.22
2018-09-09T10:41:53.384Z,94964.13
2018-09-09T10:44:22.081Z,94954.33
2018-09-09T10:46:50.875Z,94959.81
2018-09-09T10:49:19.467Z,94970.77
2018-09-09T10:51:48.157Z,94966.48
2018-09-09T10:54:16.844Z,94967.61
2018-09-09T10:56:45.471Z,94950.34
2018-09-09T10:59:14.113Z,94951.57
2018-09-09T11:01:42.766Z,94945.17
2018-09-09T11:04:11.403Z,94945.22
2018-09-09T11:06:40.181Z,94937.27
2018-09-09T11:09:09.933Z,94939.36
2018-09-09T11:11:38.748Z,94932.14
2018-09-09T11:14:07.427Z,94921.86
2018-09-09T11:16:36.085Z,94922.89
2018-09-09T11:19:04.826Z,94922.31
2018-09-09T11:21:33.483Z,94927.97
2018-09-09T11:24:02.179Z,94935.54
2018-09-09T11:26:30.888Z,94943.12
2018-09-09T11:28:59.554Z,94937.89
2018-09-09T11:31:28.229Z,94950.19
2018-09-09T11:33:56.905Z,94962.13
2018-09-09T11:36:25.597Z,94938.66
2018-09-09T11:38:54.296Z,94931.03
2018-09-09T11:41:23.020Z,94929.91
2018-09-09T11:43:51.703Z,94927.99
2018-09-09T11:46:20.650Z,94921.48
2018-09-09T11:48:49.356Z,94921.13
2018-09-09T11:51:18.028Z,94924.45
2018-09-09T11:53:46.719Z,94929.92
2018-09-09T11:56:15.460Z,94937.16
2018-09-09T11:58:44.208Z,94942.97
2018-09-09T12:01:12.921Z,94955.25
2018-09-09T12:03:41.589Z,94952.22
2018-09-09T12:06:10.246Z,94964.61
2018-09-09T12:08:38.878Z,94927.30
2018-09-09T12:11:07.577Z,94913.62
2018-09-09T12:13:36.281Z,94915.66
2018-09-09T12:16:05.123Z,94913.20
2018-09-09T12:18:33.789Z,94910.11
2018-09-09T12:21:02.551Z,94907.02
2018-09-09T12:23:31.356Z,94909.69
2018-09-09T12:26:00.029Z,94905.52
2018-09-09T12:28:28.713Z,94905.02
2018-09-09T12:30:57.366Z,94905.71
2018-09-09T12:33:25.989Z,94908.83
2018-09-09T12:35:54.669Z,94906.55
2018-09-09T12:38:23.327Z,94907.98
2018-09-09T12:40:51.960Z,94914.99
2018-09-09T12:43:25.775Z,94912.33
2018-09-09T12:45:59.594Z,94904.36
2018-09-09T12:48:33.502Z,94926.05
2018-09-09T12:51:02.164Z,94948.86
2018-09-09T12:53:30.798Z,94955.38
2018-09-09T12:55:59.463Z,94953.13
2018-09-09T12:58:28.143Z,94947.92
2018-09-09T13:00:56.802Z,94936.00
2018-09-09T13:03:25.460Z,94925.25
2018-09-09T13:05:54.096Z,94923.41
2018-09-09T13:08:22.733Z,94924.59
2018-09-09T13:10:51.436Z,94923.31
2018-09-09T13:13:20.818Z,94923.48
2018-09-09T13:15:50.025Z,94927.45
2018-09-09T13:18:18.736Z,94923.98
2018-09-09T13:20:47.384Z,94926.69
2018-09-09T13:23:16.021Z,94924.97
2018-09-09T13:25:44.679Z,94924.04
2018-09-09T13:28:13.394Z,94929.42
2018-09-09T13:30:42.069Z,94924.69
2018-09-09T13:33:10.735Z,94937.87
2018-09-09T13:35:39.369Z,94938.80
2018-09-09T13:38:08.078Z,94939.97
2018-09-09T13:40:36.795Z,94943.25
2018-09-09T13:43:05.615Z,94941.58
2018-09-09T13:45:34.286Z,94946.16
2018-09-09T13:48:03.144Z,94946.80
2018-09-09T13:50:31.810Z,94944.48
2018-09-09T13:53:00.464Z,94942.98
2018-09-09T13:55:29.154Z,94941.58
2018-09-09T13:57:57.795Z,94932.27
2018-09-09T14:00:26.470Z,94929.98
2018-09-09T14:02:55.149Z,94932.11
2018-09-09T14:05:23.859Z,94930.88
2018-09-09T14:07:52.538Z,94927.77
2018-09-09T14:10:21.222Z,94927.13
2018-09-09T14:12:49.887Z,94925.50
2018-09-09T14:15:18.625Z,94922.50
2018-09-09T14:17:47.290Z,94927.95
2018-09-09T14:20:16.000Z,94929.39
2018-09-09T14:22:44.709Z,94935.78
2018-09-09T14:25:13.302Z,94933.78
2018-09-09T14:27:42.042Z,94924.72
2018-09-09T14:31:40.087Z,94925.50
2018-09-09T14:34:08.906Z,94928.19
2018-09-09T14:36:37.564Z,94926.34
2018-09-09T14:39:08.327Z,94919.31
2018-09-09T14:41:37.047Z,94915.89
2018-09-09T14:44:06.044Z,94914.30
2018-09-09T14:46:34.822Z,94920.95
2018-09-09T14:49:03.514Z,94923.91
2018-09-09T14:51:32.241Z,94927.94
2018-09-09T14:54:01.001Z,94930.51
2018-09-09T14:56:29.760Z,94933.00
2018-09-09T14:58:58.925Z,94924.39
2018-09-09T15:01:27.692Z,94918.61
2018-09-09T15:03:56.402Z,94921.86
2018-09-09T15:06:25.186Z,94922.34
2018-09-09T15:08:54.080Z,94919.09
2018-09-09T15:11:22.814Z,94918.16
2018-09-09T15:13:51.583Z,94923.38
2018-09-09T15:16:20.234Z,94926.20
2018-09-09T15:18:48.946Z,94920.61
2018-09-09T15:21:17.702Z,94922.80
2018-09-09T15:23:46.376Z,94925.98
2018-09-09T15:26:15.130Z,94921.66
2018-09-09T15:28:43.858Z,94930.36
2018-09-09T15:31:12.535Z,94922.20
2018-09-09T15:33:41.258Z,94915.77
2018-09-09T15:36:10.550Z,94930.69
2018-09-09T15:38:39.443Z,94927.44
2018-09-09T15:41:08.213Z,94929.88
2018-09-09T15:43:37.072Z,94923.63
2018-09-09T15:46:06.431Z,94936.79
2018-09-09T15:48:35.184Z,94927.49
2018-09-09T15:51:04.118Z,94937.16
2018-09-09T15:53:32.849Z,94928.45
2018-09-09T15:56:01.589Z,94950.72
2018-09-09T15:58:30.302Z,94948.42
2018-09-09T16:00:59.088Z,94941.70
2018-09-09T16:03:27.941Z,94940.31
2018-09-09T16:05:57.300Z,94948.59
2018-09-09T16:08:26.086Z,94947.92
2018-09-09T16:10:54.855Z,94943.44
2018-09-09T16:13:23.667Z,94959.86
2018-09-09T16:15:52.397Z,94956.04
2018-09-09T16:18:21.157Z,94939.53
2018-09-09T16:20:49.888Z,94957.94
2018-09-09T16:23:18.753Z,94950.23
2018-09-09T16:25:47.617Z,94965.88
2018-09-09T16:28:16.341Z,94961.23
2018-09-09T16:30:45.725Z,94959.48
2018-09-09T16:33:14.398Z,94956.39
2018-09-09T16:35:43.187Z,94962.17
2018-09-09T16:38:11.898Z,94973.34
2018-09-09T16:40:40.721Z,94963.10
2018-09-09T16:43:11.064Z,94966.41
2018-09-09T16:45:40.548Z,94966.17
2018-09-09T16:48:09.288Z,94966.00
2018-09-09T16:50:38.099Z,94961.84
2018-09-09T16:53:07.022Z,94968.64
2018-09-09T16:57:23.623Z,94965.71
2018-09-09T16:59:52.320Z,94969.80
2018-09-09T17:02:21.098Z,94976.41
2018-09-09T17:04:49.851Z,94983.98
2018-09-09T17:07:18.572Z,94976.91
2018-09-09T17:09:47.754Z,94982.95
2018-09-09T17:12:16.772Z,94993.84
2018-09-09T17:14:45.570Z,94989.58
2018-09-09T17:17:14.314Z,94988.66
2018-09-09T17:19:42.993Z,95001.28
2018-09-09T17:22:11.715Z,94998.08
2018-09-09T17:24:40.489Z,94997.25
2018-09-09T17:27:09.300Z,94999.45
2018-09-09T17:29:38.056Z,95000.20
2018-09-09T17:32:06.771Z,95004.04
2018-09-09T17:34:35.475Z,95009.45
2018-09-09T17:37:04.546Z,95009.63
2018-09-09T17:39:33.262Z,95011.61
2018-09-09T17:42:01.916Z,95019.27
2018-09-09T17:44:30.788Z,95025.44
2018-09-09T17:46:59.631Z,95024.55
2018-09-09T17:49:28.334Z,95031.37
2018-09-09T17:51:57.132Z,95031.30
2018-09-09T17:54:25.809Z,95033.09
2018-09-09T17:56:54.607Z,95036.24
2018-09-09T17:59:23.445Z,95037.42
2018-09-09T18:01:52.239Z,95043.12
2018-09-09T18:04:21.074Z,95041.31
2018-09-09T18:06:49.782Z,95041.96
2018-09-09T18:09:18.552Z,95048.27
2018-09-09T18:11:47.387Z,95053.84
2018-09-09T18:14:16.000Z,95050.25
2018-09-09T18:16:44.702Z,95056.13
2018-09-09T18:19:13.581Z,95062.05
2018-09-09T18:21:42.305Z,95060.73
2018-09-09T18:24:11.122Z,95068.95
2018-09-09T18:26:39.824Z,95067.78
2018-09-09T18:29:08.525Z,95065.58
2018-09-09T18:31:37.231Z,95072.63
2018-09-09T18:34:05.912Z,95067.77
2018-09-09T18:36:34.640Z,95067.62
2018-09-09T18:39:03.628Z,95075.43
2018-09-09T18:41:32.311Z,95074.41
2018-09-09T18:44:01.255Z,95077.55
2018-09-09T18:46:30.097Z,95078.78
2018-09-09T18:48:58.961Z,95076.08
2018-09-09T18:51:27.775Z,95079.38
2018-09-09T18:53:56.600Z,95081.27
2018-09-09T18:56:25.357Z,95083.30
2018-09-09T18:58:54.260Z,95082.61
2018-09-09T19:01:23.016Z,95081.44
2018-09-09T19:03:51.770Z,95084.30
2018-09-09T19:06:20.642Z,95080.41
2018-09-09T19:08:49.267Z,95089.66
2018-09-09T19:11:17.946Z,95092.36
2018-09-09T19:13:46.678Z,95100.32
2018-09-09T19:16:15.417Z,95098.02
2018-09-09T19:18:44.159Z,95105.56
2018-09-09T19:21:12.934Z,95102.92
2018-09-09T19:23:41.683Z,95100.37
2018-09-09T19:26:10.369Z,95093.34
2018-09-09T19:28:40.570Z,95102.79
2018-09-09T19:31:09.294Z,95100.81
2018-09-09T19:33:38.049Z,95105.04
2018-09-09T19:36:06.872Z,95115.49
2018-09-09T19:38:35.660Z,95109.43
2018-09-09T19:41:04.351Z,95108.97
2018-09-09T19:43:33.345Z,95103.88
2018-09-09T19:46:02.066Z,95107.25
2018-09-09T19:48:30.727Z,95100.23
2018-09-09T19:50:59.445Z,95094.77
2018-09-09T19:53:28.140Z,95098.16
2018-09-09T19:55:56.853Z,95095.44
2018-09-09T19:58:25.807Z,95089.41
2018-09-09T20:00:54.492Z,95100.70
2018-09-09T20:03:23.276Z,95098.73
2018-09-09T20:05:51.981Z,95093.55
2018-09-09T20:08:20.630Z,95089.55
2018-09-09T20:10:49.371Z,95095.97
2018-09-09T20:13:18.071Z,95095.17
2018-09-09T20:15:46.926Z,95095.79
2018-09-09T20:18:15.535Z,95095.56
2018-09-09T20:20:44.243Z,95097.80
2018-09-09T20:23:13.291Z,95100.58
2018-09-09T20:25:41.943Z,95099.44
2018-09-09T20:28:10.615Z,95100.58
2018-09-09T20:30:39.379Z,95094.73
2018-09-09T20:33:08.049Z,95102.99
2018-09-09T20:35:36.717Z,95102.20
2018-09-09T20:38:05.507Z,95109.78
2018-09-09T20:40:34.173Z,95111.53
2018-09-09T20:43:02.858Z,95102.14
2018-09-09T20:45:31.627Z,95109.45
2018-09-09T20:48:00.563Z,95103.28
2018-09-09T20:50:29.326Z,95108.81
2018-09-09T20:52:58.173Z,95114.26
2018-09-09T20:55:26.810Z,95103.64
2018-09-09T20:57:55.500Z,95108.91
2018-09-09T21:00:24.303Z,95106.48
2018-09-09T21:02:53.660Z,95097.92
2018-09-09T21:05:22.518Z,95109.61
2018-09-09T21:07:51.318Z,95095.16
2018-09-09T21:10:19.997Z,95103.86
2018-09-09T21:12:48.671Z,95113.50
2018-09-09T21:15:17.519Z,95104.07
2018-09-09T21:17:46.334Z,95109.19
2018-09-09T21:20:15.139Z,95110.04
2018-09-09T21:22:43.976Z,95108.27
2018-09-09T21:25:12.783Z,95108.75
2018-09-09T21:27:41.667Z,95103.52
2018-09-09T21:30:10.499Z,95101.47
2018-09-09T21:32:39.235Z,95103.28
2018-09-09T21:35:08.018Z,95101.56
2018-09-09T21:37:36.709Z,95095.78
2018-09-09T21:40:05.455Z,95094.98
2018-09-09T21:42:34.214Z,95091.16
2018-09-09T21:45:02.882Z,95090.58
2018-09-09T21:47:31.681Z,95091.87
2018-09-09T21:50:00.467Z,95095.72
2018-09-09T21:52:29.184Z,95095.02
2018-09-09T21:54:57.947Z,95108.57
2018-09-09T21:57:26.724Z,95102.52
2018-09-09T21:59:55.441Z,95097.53
2018-09-09T22:02:24.114Z,95103.00
2018-09-09T22:04:52.942Z,95105.63
2018-09-09T22:07:21.771Z,95100.19
2018-09-09T22:09:50.575Z,95098.88
2018-09-09T22:12:19.448Z,95100.19
2018-09-09T22:14:48.202Z,95094.86
2018-09-09T22:17:16.875Z,95099.61
2018-09-09T22:19:45.659Z,95091.41
2018-09-09T22:22:14.351Z,95089.39
2018-09-09T22:24:43.081Z,95096.17
2018-09-09T22:27:12.442Z,95093.94
2018-09-09T22:29:41.130Z,95088.98
2018-09-09T22:32:09.816Z,95086.89
2018-09-09T22:34:38.493Z,95087.09
2018-09-09T22:37:07.138Z,95087.31
2018-09-09T22:39:35.794Z,95087.22
2018-09-09T22:42:04.508Z,95080.64
2018-09-09T22:44:33.263Z,95078.29
2018-09-09T22:47:01.911Z,95077.52
2018-09-09T22:49:30.587Z,95082.25
2018-09-09T22:51:59.292Z,95080.84
2018-09-09T22:54:28.015Z,95090.25
2018-09-09T22:56:56.656Z,95078.33
2018-09-09T22:59:25.375Z,95081.58
2018-09-09T23:01:54.148Z,95082.77
2018-09-09T23:04:22.778Z,95081.16
2018-09-09T23:06:51.820Z,95071.23
2018-09-09T23:09:20.502Z,95082.16
2018-09-09T23:11:49.807Z,95086.20
2018-09-09T23:14:18.521Z,95085.40
2018-09-09T23:16:47.255Z,95089.64
2018-09-09T23:19:15.904Z,95075.10
2018-09-09T23:21:44.557Z,95087.23
2018-09-09T23:24:13.182Z,95083.09
2018-09-09T23:26:41.855Z,95085.81
2018-09-09T23:29:10.510Z,95083.78
2018-09-09T23:34:38.438Z,95079.05
2018-09-09T23:37:07.159Z,95066.72
2018-09-09T23:39:35.810Z,95078.23
2018-09-09T23:42:04.562Z,95080.68
2018-09-09T23:44:33.229Z,95075.60
2018-09-09T23:47:01.907Z,95081.78
2018-09-09T23:49:30.590Z,95060.24
2018-09-09T23:51:59.255Z,95070.05
2018-09-09T23:54:27.968Z,95076.82
2018-09-09T23:56:56.740Z,95078.86
2018-09-09T23:59:25.415Z,95078.66
